Time;durP1;ratioP1;P1;durP2;ratioP2;P2;SDS_P1;SDS_P2;PMS_P1;PMS_P2;Temp;Humidity;BMP_temperature;BMP_pressure;BME280_temperature;BME280_humidity;BME280_pressure;Samples;Min_cycle;Max_cycle;Signal;HPM_P1;HPM_P2
2022/11/27 00:00:36;;;;;;;;;;;;;;;;;;5013466;28;19960;-58
2022/11/27 00:03:02;;;;;;;;;;;;;;;;;;5008172;28;20078;-57
2022/11/27 00:05:28;;;;;;;;;;;;;;;;;;5023985;28;20035;-57
2022/11/27 00:07:53;;;;;;;;;;;;;;;;;;5023876;28;19924;-57
2022/11/27 00:10:19;;;;;;;;;;;;;;;;;;5029385;28;19920;-57
2022/11/27 00:12:45;;;;;;;;;;;;;;;;;;5022918;28;19971;-57
2022/11/27 00:15:11;;;;;;;;;;;;;;;;;;5027672;28;19962;-57
2022/11/27 00:17:37;;;;;;;;;;;;;;;;;;5028440;28;19917;-57
2022/11/27 00:20:03;;;;;;;;;;;;;;;;;;5028866;28;20349;-57
2022/11/27 00:22:29;;;;;;;;;;;;;;;;;;5028786;28;19917;-58
2022/11/27 00:24:57;;;;;;;;;;;;;;;;;;5023968;28;20022;-58
2022/11/27 00:27:23;;;;;;;;;;;;;;;;;;5030488;28;19917;-57
2022/11/27 00:29:49;;;;;;;;;;;;;;;;;;5030096;28;20374;-58
2022/11/27 00:32:15;;;;;;;;;;;;;;;;;;5027292;28;19921;-58
2022/11/27 00:34:41;;;;;;;;;;;;;;;;;;5026727;28;20466;-57
2022/11/27 00:37:07;;;;;;;;;;;;;;;;;;5028797;28;20485;-57
2022/11/27 00:39:33;;;;;;;;;;;;;;;;;;5027085;28;20023;-57
2022/11/27 00:41:58;;;;;;;;;;;;;;;;;;5025857;28;19921;-57
2022/11/27 00:44:24;;;;;;;;;;;;;;;;;;5026821;28;20023;-57
2022/11/27 00:46:50;;;;;;;;;;;;;;;;;;5027255;28;20392;-57
2022/11/27 00:49:16;;;;;;;;;;;;;;;;;;5028615;28;20015;-58
2022/11/27 00:51:42;;;;;;;;;;;;;;;;;;5027009;28;19921;-57
2022/11/27 00:54:08;;;;;;;;;;;;;;;;;;5030033;28;20431;-57
2022/11/27 00:56:34;;;;;;;;;;;;;;;;;;5026936;28;19921;-57
2022/11/27 00:59:00;;;;;;;;;;;;;;;;;;5027932;28;19921;-57
2022/11/27 01:01:26;;;;;;;;;;;;;;;;;;5028470;28;20007;-57
2022/11/27 01:03:52;;;;;;;;;;;;;;;;;;5028974;28;19921;-56
2022/11/27 01:06:18;;;;;;;;;;;;;;;;;;5028848;28;20329;-57
2022/11/27 01:08:43;;;;;;;;;;;;;;;;;;5026725;28;19924;-57
2022/11/27 01:11:09;;;;;;;;;;;;;;;;;;5026520;28;20386;-57
2022/11/27 01:13:35;;;;;;;;;;;;;;;;;;5028020;28;19917;-57
2022/11/27 01:16:01;;;;;;;;;;;;;;;;;;5025836;28;19921;-56
2022/11/27 01:18:27;;;;;;;;;;;;;;;;;;5023327;28;19943;-56
2022/11/27 01:20:53;;;;;;;;;;;;;;;;;;5030533;28;20371;-56
2022/11/27 01:23:19;;;;;;;;;;;;;;;;;;5027311;28;20812;-57
2022/11/27 01:25:45;;;;;;;;;;;;;;;;;;5024243;28;19921;-57
2022/11/27 01:28:11;;;;;;;;;;;;;;;;;;5025607;28;19917;-57
2022/11/27 01:30:36;;;;;;;;;;;;;;;;;;5023703;28;19962;-57
2022/11/27 01:33:02;;;;;;;;;;;;;;;;;;5017541;28;19929;-57
2022/11/27 01:35:28;;;;;;;;;;;;;;;;;;5023085;28;19967;-58
2022/11/27 01:37:54;;;;;;;;;;;;;;;;;;5027215;28;19920;-57
2022/11/27 01:40:20;;;;;;;;;;;;;;;;;;5026699;28;19917;-56
2022/11/27 01:42:46;;;;;;;;;;;;;;;;;;5028803;28;19923;-57
2022/11/27 01:45:12;;;;;;;;;;;;;;;;;;5005576;28;20381;-57
2022/11/27 01:47:37;;;;;;;;;;;;;;;;;;5027402;28;19920;-57
2022/11/27 01:50:03;;;;;;;;;;;;;;;;;;5025996;28;19917;-56
2022/11/27 01:52:29;;;;;;;;;;;;;;;;;;5030613;28;19957;-57
2022/11/27 01:54:55;;;;;;;;;;;;;;;;;;5016716;28;19921;-57
2022/11/27 01:57:21;;;;;;;;;;;;;;;;;;5012786;28;19924;-57
2022/11/27 01:59:47;;;;;;;;;;;;;;;;;;5004678;28;20695;-57
2022/11/27 02:02:13;;;;;;;;;;;;;;;;;;5009653;28;19936;-58
2022/11/27 02:04:39;;;;;;;;;;;;;;;;;;5008046;28;20706;-57
2022/11/27 02:07:04;;;;;;;;;;;;;;;;;;5003002;28;19921;-58
2022/11/27 02:09:30;;;;;;;;;;;;;;;;;;5015209;28;19953;-57
2022/11/27 02:11:56;;;;;;;;;;;;;;;;;;5008768;28;20405;-58
2022/11/27 02:14:22;;;;;;;;;;;;;;;;;;5011944;28;19921;-57
2022/11/27 02:16:48;;;;;;;;;;;;;;;;;;5012291;28;20453;-57
2022/11/27 02:19:14;;;;;;;;;;;;;;;;;;5011346;28;21563;-57
2022/11/27 02:21:40;;;;;;;;;;;;;;;;;;5009589;28;19917;-57
2022/11/27 02:24:05;;;;;;;;;;;;;;;;;;5024882;28;19913;-57
2022/11/27 02:26:31;;;;;;;;;;;;;;;;;;5021171;28;19917;-57
2022/11/27 02:28:57;;;;;;;;;;;;;;;;;;5016746;28;19921;-58
2022/11/27 02:31:23;;;;;;;;;;;;;;;;;;5022828;28;20393;-56
2022/11/27 02:33:49;;;;;;;;;;;;;;;;;;5027537;28;19921;-56
2022/11/27 02:36:15;;;;;;;;;;;;;;;;;;5028888;28;19947;-57
2022/11/27 02:38:41;;;;;;;;;;;;;;;;;;5031478;28;20007;-57
2022/11/27 02:41:07;;;;;;;;;;;;;;;;;;5024191;28;20395;-57
2022/11/27 02:43:33;;;;;;;;;;;;;;;;;;5030529;28;21076;-57
2022/11/27 02:45:59;;;;;;;;;;;;;;;;;;5027894;28;19996;-57
2022/11/27 02:48:24;;;;;;;;;;;;;;;;;;5027883;28;19921;-56
2022/11/27 02:50:50;;;;;;;;;;;;;;;;;;5025694;28;20392;-57
2022/11/27 02:53:16;;;;;;;;;;;;;;;;;;5025854;28;20330;-56
2022/11/27 02:55:42;;;;;;;;;;;;;;;;;;5028432;28;19917;-57
2022/11/27 02:58:08;;;;;;;;;;;;;;;;;;5028468;28;19916;-57
2022/11/27 03:00:34;;;;;;;;;;;;;;;;;;5019753;28;19917;-57
2022/11/27 03:03:00;;;;;;;;;;;;;;;;;;5028405;28;19921;-56
2022/11/27 03:05:26;;;;;;;;;;;;;;;;;;5030491;28;19971;-57
2022/11/27 03:07:51;;;;;;;;;;;;;;;;;;5030645;28;19917;-57
2022/11/27 03:10:18;;;;;;;;;;;;;;;;;;5026159;28;20303;-56
2022/11/27 03:12:43;;;;;;;;;;;;;;;;;;5008376;28;20440;-56
2022/11/27 03:15:09;;;;;;;;;;;;;;;;;;5024263;28;19924;-57
2022/11/27 03:17:35;;;;;;;;;;;;;;;;;;5030921;28;19923;-57
2022/11/27 03:20:01;;;;;;;;;;;;;;;;;;5032719;28;20992;-57
2022/11/27 03:22:27;;;;;;;;;;;;;;;;;;5030028;28;19923;-56
2022/11/27 03:24:53;;;;;;;;;;;;;;;;;;5029081;28;20004;-57
2022/11/27 03:27:19;;;;;;;;;;;;;;;;;;5019832;28;19924;-56
2022/11/27 03:29:45;;;;;;;;;;;;;;;;;;5029336;28;19924;-56
2022/11/27 03:32:11;;;;;;;;;;;;;;;;;;5028111;28;20267;-58
2022/11/27 03:34:36;;;;;;;;;;;;;;;;;;5029879;28;19920;-57
2022/11/27 03:37:02;;;;;;;;;;;;;;;;;;5019682;28;20314;-56
2022/11/27 03:39:28;;;;;;;;;;;;;;;;;;5026567;28;19921;-57
2022/11/27 03:41:54;;;;;;;;;;;;;;;;;;5009825;28;20202;-56
2022/11/27 03:44:22;;;;;;;;;;;;;;;;;;5029991;28;21348;-56
2022/11/27 03:46:48;;;;;;;;;;;;;;;;;;5029859;28;20299;-56
2022/11/27 03:49:14;;;;;;;;;;;;;;;;;;5032227;28;19917;-57
2022/11/27 03:51:39;;;;;;;;;;;;;;;;;;5027628;28;19943;-57
2022/11/27 03:54:06;;;;;;;;;;;;;;;;;;5030121;28;20329;-57
2022/11/27 03:56:32;;;;;;;;;;;;;;;;;;5026558;28;19917;-57
2022/11/27 03:58:57;;;;;;;;;;;;;;;;;;5027153;28;19940;-57
2022/11/27 04:01:23;;;;;;;;;;;;;;;;;;5014177;28;19992;-57
2022/11/27 04:03:49;;;;;;;;;;;;;;;;;;5027119;28;20450;-57
2022/11/27 04:06:15;;;;;;;;;;;;;;;;;;5024704;28;20078;-57
2022/11/27 04:08:41;;;;;;;;;;;;;;;;;;5026233;28;19928;-57
2022/11/27 04:11:07;;;;;;;;;;;;;;;;;;5030862;28;19955;-57
2022/11/27 04:13:33;;;;;;;;;;;;;;;;;;5027966;28;20020;-57
2022/11/27 04:15:59;;;;;;;;;;;;;;;;;;5027289;28;19917;-56
2022/11/27 04:18:25;;;;;;;;;;;;;;;;;;5026678;28;20790;-57
2022/11/27 04:20:51;;;;;;;;;;;;;;;;;;5028437;28;19917;-57
2022/11/27 04:23:17;;;;;;;;;;;;;;;;;;5028851;28;19917;-57
2022/11/27 04:25:43;;;;;;;;;;;;;;;;;;5026034;28;20192;-57
2022/11/27 04:28:09;;;;;;;;;;;;;;;;;;5026464;28;19931;-58
2022/11/27 04:30:35;;;;;;;;;;;;;;;;;;5022550;28;20357;-57
2022/11/27 04:33:00;;;;;;;;;;;;;;;;;;5027295;28;19921;-57
2022/11/27 04:35:26;;;;;;;;;;;;;;;;;;5028631;28;19920;-57
2022/11/27 04:37:52;;;;;;;;;;;;;;;;;;5027189;28;20301;-57
2022/11/27 04:40:18;;;;;;;;;;;;;;;;;;5031478;28;19967;-56
2022/11/27 04:42:44;;;;;;;;;;;;;;;;;;5028311;28;19917;-57
2022/11/27 04:45:10;;;;;;;;;;;;;;;;;;5027984;28;19923;-57
2022/11/27 04:47:36;;;;;;;;;;;;;;;;;;5027383;28;20071;-57
2022/11/27 04:50:02;;;;;;;;;;;;;;;;;;5027896;28;19917;-57
2022/11/27 04:52:27;;;;;;;;;;;;;;;;;;5012786;28;19978;-56
2022/11/27 04:54:53;;;;;;;;;;;;;;;;;;5018599;28;20651;-57
2022/11/27 04:57:19;;;;;;;;;;;;;;;;;;5018968;28;19987;-56
2022/11/27 04:59:45;;;;;;;;;;;;;;;;;;5012848;28;19924;-57
2022/11/27 05:02:11;;;;;;;;;;;;;;;;;;5013237;28;19917;-57
2022/11/27 05:04:37;;;;;;;;;;;;;;;;;;5014617;28;20287;-57
2022/11/27 05:07:03;;;;;;;;;;;;;;;;;;5022741;28;20443;-57
2022/11/27 05:09:29;;;;;;;;;;;;;;;;;;5009034;28;20611;-56
2022/11/27 05:11:55;;;;;;;;;;;;;;;;;;5011019;28;19927;-56
2022/11/27 05:14:22;;;;;;;;;;;;;;;;;;5025631;28;19917;-56
2022/11/27 05:16:48;;;;;;;;;;;;;;;;;;5017698;28;20469;-57
2022/11/27 05:19:14;;;;;;;;;;;;;;;;;;5014077;28;19940;-56
2022/11/27 05:21:40;;;;;;;;;;;;;;;;;;5025635;28;19917;-55
2022/11/27 05:24:06;;;;;;;;;;;;;;;;;;5026554;28;19921;-56
2022/11/27 05:26:32;;;;;;;;;;;;;;;;;;5028264;28;20298;-57
2022/11/27 05:28:58;;;;;;;;;;;;;;;;;;5013902;28;19968;-57
2022/11/27 05:31:24;;;;;;;;;;;;;;;;;;5024153;28;19917;-56
2022/11/27 05:33:50;;;;;;;;;;;;;;;;;;5029344;28;19929;-57
2022/11/27 05:36:15;;;;;;;;;;;;;;;;;;5022592;28;19917;-57
2022/11/27 05:38:41;;;;;;;;;;;;;;;;;;5024563;28;20432;-56
2022/11/27 05:41:07;;;;;;;;;;;;;;;;;;5022477;28;19921;-57
2022/11/27 05:43:33;;;;;;;;;;;;;;;;;;5026217;28;20008;-57
2022/11/27 05:45:59;;;;;;;;;;;;;;;;;;5028745;28;20417;-57
2022/11/27 05:48:25;;;;;;;;;;;;;;;;;;5024876;28;19921;-57
2022/11/27 05:50:51;;;;;;;;;;;;;;;;;;5029617;28;19921;-56
2022/11/27 05:53:17;;;;;;;;;;;;;;;;;;5024726;28;21534;-57
2022/11/27 05:55:43;;;;;;;;;;;;;;;;;;5026911;28;19920;-57
2022/11/27 05:58:08;;;;;;;;;;;;;;;;;;5026964;28;19917;-56
2022/11/27 06:00:34;;;;;;;;;;;;;;;;;;5026437;28;20951;-57
2022/11/27 06:03:00;;;;;;;;;;;;;;;;;;5026372;28;19917;-57
2022/11/27 06:05:26;;;;;;;;;;;;;;;;;;5025984;28;19924;-57
2022/11/27 06:07:52;;;;;;;;;;;;;;;;;;5024663;28;20602;-56
2022/11/27 06:10:18;;;;;;;;;;;;;;;;;;5026632;28;19920;-56
2022/11/27 06:12:44;;;;;;;;;;;;;;;;;;5024582;28;20028;-57
2022/11/27 06:15:09;;;;;;;;;;;;;;;;;;5028515;28;19921;-57
2022/11/27 06:17:35;;;;;;;;;;;;;;;;;;5012657;28;20294;-57
2022/11/27 06:20:01;;;;;;;;;;;;;;;;;;5026262;28;20013;-57
2022/11/27 06:22:27;;;;;;;;;;;;;;;;;;5027659;28;20366;-57
2022/11/27 06:24:53;;;;;;;;;;;;;;;;;;5026003;28;19998;-56
2022/11/27 06:27:19;;;;;;;;;;;;;;;;;;5017316;28;19917;-56
2022/11/27 06:29:45;;;;;;;;;;;;;;;;;;5022392;28;19921;-56
2022/11/27 06:32:11;;;;;;;;;;;;;;;;;;5020429;28;19932;-57
2022/11/27 06:34:37;;;;;;;;;;;;;;;;;;5025754;28;19920;-56
2022/11/27 06:37:03;;;;;;;;;;;;;;;;;;5011810;28;19916;-56
2022/11/27 06:39:29;;;;;;;;;;;;;;;;;;5027188;28;19925;-57
2022/11/27 06:41:54;;;;;;;;;;;;;;;;;;5022740;28;19942;-57
2022/11/27 06:44:20;;;;;;;;;;;;;;;;;;5028924;28;19917;-56
2022/11/27 06:46:46;;;;;;;;;;;;;;;;;;5022440;28;20329;-57
2022/11/27 06:49:12;;;;;;;;;;;;;;;;;;5027414;28;19963;-57
2022/11/27 06:51:38;;;;;;;;;;;;;;;;;;5022972;28;19923;-57
2022/11/27 06:54:04;;;;;;;;;;;;;;;;;;5023215;28;21390;-57
2022/11/27 06:56:30;;;;;;;;;;;;;;;;;;5019899;28;20578;-57
2022/11/27 06:58:56;;;;;;;;;;;;;;;;;;5025151;28;19917;-56
2022/11/27 07:01:22;;;;;;;;;;;;;;;;;;5023666;28;19917;-56
2022/11/27 07:03:47;;;;;;;;;;;;;;;;;;5029318;28;19921;-56
2022/11/27 07:06:14;;;;;;;;;;;;;;;;;;5025236;28;20387;-57
2022/11/27 07:08:39;;;;;;;;;;;;;;;;;;5029107;28;19924;-56
2022/11/27 07:11:05;;;;;;;;;;;;;;;;;;5027607;28;20397;-56
2022/11/27 07:13:31;;;;;;;;;;;;;;;;;;5021511;28;19921;-57
2022/11/27 07:15:57;;;;;;;;;;;;;;;;;;5024396;28;19921;-56
2022/11/27 07:18:23;;;;;;;;;;;;;;;;;;5023295;28;19919;-56
2022/11/27 07:20:49;;;;;;;;;;;;;;;;;;5026828;28;20282;-57
2022/11/27 07:23:15;;;;;;;;;;;;;;;;;;5027718;28;19927;-57
2022/11/27 07:25:41;;;;;;;;;;;;;;;;;;5019043;28;19979;-56
2022/11/27 07:28:06;;;;;;;;;;;;;;;;;;5027691;28;19991;-56
2022/11/27 07:30:32;;;;;;;;;;;;;;;;;;5014815;28;20466;-57
2022/11/27 07:32:58;;;;;;;;;;;;;;;;;;5021923;28;19921;-57
2022/11/27 07:35:24;;;;;;;;;;;;;;;;;;5021662;28;19916;-56
2022/11/27 07:37:50;;;;;;;;;;;;;;;;;;5026307;28;20511;-56
2022/11/27 07:40:17;;;;;;;;;;;;;;;;;;5028041;28;20011;-56
2022/11/27 07:42:43;;;;;;;;;;;;;;;;;;5030130;28;19921;-56
2022/11/27 07:45:08;;;;;;;;;;;;;;;;;;5019157;28;20465;-57
2022/11/27 07:47:34;;;;;;;;;;;;;;;;;;5028464;28;19948;-56
2022/11/27 07:50:00;;;;;;;;;;;;;;;;;;5022559;28;20393;-56
2022/11/27 07:52:26;;;;;;;;;;;;;;;;;;5027795;28;20027;-56
2022/11/27 07:54:52;;;;;;;;;;;;;;;;;;5018197;28;20434;-56
2022/11/27 07:57:18;;;;;;;;;;;;;;;;;;5025425;28;19920;-56
2022/11/27 07:59:44;;;;;;;;;;;;;;;;;;5005427;28;19925;-57
2022/11/27 08:02:10;;;;;;;;;;;;;;;;;;5013476;28;19928;-56
2022/11/27 08:04:35;;;;;;;;;;;;;;;;;;5022995;28;19917;-56
2022/11/27 08:07:01;;;;;;;;;;;;;;;;;;5008174;28;20427;-58
2022/11/27 08:09:27;;;;;;;;;;;;;;;;;;5017021;28;19948;-57
2022/11/27 08:11:53;;;;;;;;;;;;;;;;;;5015997;28;20591;-57
2022/11/27 08:14:19;;;;;;;;;;;;;;;;;;5008503;28;20034;-57
2022/11/27 08:16:45;;;;;;;;;;;;;;;;;;5013067;28;19921;-56
2022/11/27 08:19:11;;;;;;;;;;;;;;;;;;5003909;28;20760;-56
2022/11/27 08:21:37;;;;;;;;;;;;;;;;;;5011782;28;19963;-56
2022/11/27 08:24:02;;;;;;;;;;;;;;;;;;5017350;28;19917;-56
2022/11/27 08:26:28;;;;;;;;;;;;;;;;;;5015728;28;19917;-56
2022/11/27 08:28:54;;;;;;;;;;;;;;;;;;5011100;28;19956;-55
2022/11/27 08:31:20;;;;;;;;;;;;;;;;;;5010848;28;20443;-56
2022/11/27 08:33:46;;;;;;;;;;;;;;;;;;5017086;28;20369;-57
2022/11/27 08:36:12;;;;;;;;;;;;;;;;;;5014575;28;20305;-61
2022/11/27 08:38:38;;;;;;;;;;;;;;;;;;5019325;28;19925;-61
2022/11/27 08:41:04;;;;;;;;;;;;;;;;;;5021520;28;20685;-61
2022/11/27 08:43:30;;;;;;;;;;;;;;;;;;5017913;28;19920;-61
2022/11/27 08:45:55;;;;;;;;;;;;;;;;;;5011500;28;19966;-62
2022/11/27 08:48:21;;;;;;;;;;;;;;;;;;5023562;28;19960;-63
2022/11/27 08:50:47;;;;;;;;;;;;;;;;;;5021490;28;19917;-61
2022/11/27 08:53:13;;;;;;;;;;;;;;;;;;5020780;28;20363;-62
2022/11/27 08:55:39;;;;;;;;;;;;;;;;;;5017732;28;20776;-60
2022/11/27 08:58:05;;;;;;;;;;;;;;;;;;5040835;28;20238;-59
2022/11/27 09:00:31;;;;;;;;;;;;;;;;;;5024725;28;20523;-59
2022/11/27 09:02:56;;;;;;;;;;;;;;;;;;5016504;28;20367;-59
2022/11/27 09:05:23;;;;;;;;;;;;;;;;;;5010334;28;20593;-60
2022/11/27 09:07:49;;;;;;;;;;;;;;;;;;5015120;28;20019;-59
2022/11/27 09:10:14;;;;;;;;;;;;;;;;;;5025308;28;19917;-59
2022/11/27 09:12:40;;;;;;;;;;;;;;;;;;5006397;28;19921;-59
2022/11/27 09:15:06;;;;;;;;;;;;;;;;;;5017599;28;19925;-59
2022/11/27 09:17:32;;;;;;;;;;;;;;;;;;5024218;28;19917;-60
2022/11/27 09:19:58;;;;;;;;;;;;;;;;;;5016956;28;19939;-59
2022/11/27 09:22:24;;;;;;;;;;;;;;;;;;5021021;28;19921;-60
2022/11/27 09:24:50;;;;;;;;;;;;;;;;;;5020420;28;19928;-60
2022/11/27 09:27:16;;;;;;;;;;;;;;;;;;5021757;28;19944;-59
2022/11/27 09:29:41;;;;;;;;;;;;;;;;;;5026313;28;19924;-59
2022/11/27 09:32:07;;;;;;;;;;;;;;;;;;5020382;28;20309;-60
2022/11/27 09:34:33;;;;;;;;;;;;;;;;;;5029630;28;19931;-60
2022/11/27 09:36:59;;;;;;;;;;;;;;;;;;5028219;28;19917;-59
2022/11/27 09:39:29;;;;;;;;;;;;;;;;;;5023383;28;20392;-57
2022/11/27 09:41:55;;;;;;;;;;;;;;;;;;5021056;28;19927;-59
2022/11/27 09:44:21;;;;;;;;;;;;;;;;;;5010962;28;19925;-60
2022/11/27 09:46:48;;;;;;;;;;;;;;;;;;5022319;28;19917;-60
2022/11/27 09:49:14;;;;;;;;;;;;;;;;;;5014514;28;20287;-59
2022/11/27 09:51:39;;;;;;;;;;;;;;;;;;5021291;28;19975;-60
2022/11/27 09:54:05;;;;;;;;;;;;;;;;;;5022540;28;19979;-60
2022/11/27 09:56:31;;;;;;;;;;;;;;;;;;5014640;28;20657;-60
2022/11/27 09:58:57;;;;;;;;;;;;;;;;;;5013833;28;20022;-60
2022/11/27 10:01:23;;;;;;;;;;;;;;;;;;5019112;28;19913;-60
2022/11/27 10:03:49;;;;;;;;;;;;;;;;;;5007135;28;19925;-60
2022/11/27 10:06:15;;;;;;;;;;;;;;;;;;5021146;28;20451;-60
2022/11/27 10:08:41;;;;;;;;;;;;;;;;;;5019494;28;20389;-59
2022/11/27 10:11:07;;;;;;;;;;;;;;;;;;5016858;28;20062;-60
2022/11/27 10:13:33;;;;;;;;;;;;;;;;;;5005358;28;19925;-60
2022/11/27 10:15:58;;;;;;;;;;;;;;;;;;5007208;28;19925;-60
2022/11/27 10:18:25;;;;;;;;;;;;;;;;;;5009641;28;20437;-60
2022/11/27 10:20:51;;;;;;;;;;;;;;;;;;5003109;28;19916;-60
2022/11/27 10:23:16;;;;;;;;;;;;;;;;;;5016368;28;19925;-60
2022/11/27 10:25:42;;;;;;;;;;;;;;;;;;5019639;28;19925;-59
2022/11/27 10:28:08;;;;;;;;;;;;;;;;;;5021761;28;20241;-60
2022/11/27 10:30:34;;;;;;;;;;;;;;;;;;5017028;28;20374;-60
2022/11/27 10:33:00;;;;;;;;;;;;;;;;;;5017575;28;19987;-60
2022/11/27 10:35:26;;;;;;;;;;;;;;;;;;5011541;28;19925;-60
2022/11/27 10:37:52;;;;;;;;;;;;;;;;;;5014467;28;19928;-60
2022/11/27 10:40:17;;;;;;;;;;;;;;;;;;5010378;28;19924;-60
2022/11/27 10:42:43;;;;;;;;;;;;;;;;;;5017694;28;20150;-60
2022/11/27 10:45:09;;;;;;;;;;;;;;;;;;5026982;28;20540;-59
2022/11/27 10:47:35;;;;;;;;;;;;;;;;;;5025085;28;19924;-59
2022/11/27 10:50:01;;;;;;;;;;;;;;;;;;5029019;28;19931;-59
2022/11/27 10:52:27;;;;;;;;;;;;;;;;;;5012045;28;20344;-59
2022/11/27 10:54:53;;;;;;;;;;;;;;;;;;5013359;28;19932;-59
2022/11/27 10:57:19;;;;;;;;;;;;;;;;;;5006599;28;20459;-59
2022/11/27 10:59:45;;;;;;;;;;;;;;;;;;5016584;28;20387;-59
2022/11/27 11:02:10;;;;;;;;;;;;;;;;;;5021534;28;20008;-59
2022/11/27 11:04:36;;;;;;;;;;;;;;;;;;5029027;28;19936;-59
2022/11/27 11:07:02;;;;;;;;;;;;;;;;;;5020491;28;19921;-59
2022/11/27 11:09:28;;;;;;;;;;;;;;;;;;5019533;28;19975;-60
2022/11/27 11:11:54;;;;;;;;;;;;;;;;;;5020329;28;20363;-60
2022/11/27 11:14:20;;;;;;;;;;;;;;;;;;5019991;28;19920;-61
2022/11/27 11:16:46;;;;;;;;;;;;;;;;;;5021700;28;19990;-60
2022/11/27 11:19:12;;;;;;;;;;;;;;;;;;5020215;28;20476;-59
2022/11/27 11:21:38;;;;;;;;;;;;;;;;;;5021953;28;20570;-60
2022/11/27 11:24:04;;;;;;;;;;;;;;;;;;5021244;28;19913;-59
2022/11/27 11:26:29;;;;;;;;;;;;;;;;;;5020357;28;19917;-59
2022/11/27 11:28:55;;;;;;;;;;;;;;;;;;5027063;28;20392;-58
2022/11/27 11:31:21;;;;;;;;;;;;;;;;;;5022271;28;20074;-59
2022/11/27 11:33:47;;;;;;;;;;;;;;;;;;5015356;28;19921;-59
2022/11/27 11:36:13;;;;;;;;;;;;;;;;;;5023628;28;19988;-59
2022/11/27 11:38:39;;;;;;;;;;;;;;;;;;5016592;28;19929;-59
2022/11/27 11:41:05;;;;;;;;;;;;;;;;;;5018968;28;19987;-59
2022/11/27 11:43:32;;;;;;;;;;;;;;;;;;5022200;28;19956;-59
2022/11/27 11:45:58;;;;;;;;;;;;;;;;;;5024600;28;19971;-59
2022/11/27 11:48:24;;;;;;;;;;;;;;;;;;5013326;28;19921;-59
2022/11/27 11:50:50;;;;;;;;;;;;;;;;;;5019117;28;19939;-59
2022/11/27 11:53:15;;;;;;;;;;;;;;;;;;5016775;28;20345;-59
2022/11/27 11:55:41;;;;;;;;;;;;;;;;;;5014187;28;20352;-57
2022/11/27 11:58:09;;;;;;;;;;;;;;;;;;5016369;28;19921;-59
2022/11/27 12:00:35;;;;;;;;;;;;;;;;;;5015453;28;19925;-59
2022/11/27 12:03:01;;;;;;;;;;;;;;;;;;5007496;28;19960;-60
2022/11/27 12:05:26;;;;;;;;;;;;;;;;;;5014160;28;20893;-59
2022/11/27 12:07:52;;;;;;;;;;;;;;;;;;5023883;28;20015;-59
2022/11/27 12:10:18;;;;;;;;;;;;;;;;;;5013373;28;19921;-59
2022/11/27 12:12:44;;;;;;;;;;;;;;;;;;5001664;28;19920;-59
2022/11/27 12:15:10;;;;;;;;;;;;;;;;;;5004660;28;19921;-61
2022/11/27 12:17:36;;;;;;;;;;;;;;;;;;5017255;28;20408;-59
2022/11/27 12:20:02;;;;;;;;;;;;;;;;;;5006304;28;19925;-59
2022/11/27 12:22:28;;;;;;;;;;;;;;;;;;5004991;28;19960;-59
2022/11/27 12:24:53;;;;;;;;;;;;;;;;;;5006306;28;19951;-59
2022/11/27 12:27:19;;;;;;;;;;;;;;;;;;5006784;28;19956;-59
2022/11/27 12:29:45;;;;;;;;;;;;;;;;;;5008885;28;19925;-59
2022/11/27 12:32:11;;;;;;;;;;;;;;;;;;5006719;28;20071;-58
2022/11/27 12:34:37;;;;;;;;;;;;;;;;;;4999327;28;19931;-59
2022/11/27 12:37:03;;;;;;;;;;;;;;;;;;5007856;28;19925;-59
2022/11/27 12:39:29;;;;;;;;;;;;;;;;;;5013518;28;19982;-59
2022/11/27 12:41:55;;;;;;;;;;;;;;;;;;5010848;28;20290;-59
2022/11/27 12:44:20;;;;;;;;;;;;;;;;;;5015067;28;20269;-60
2022/11/27 12:46:46;;;;;;;;;;;;;;;;;;5007825;28;19932;-60
2022/11/27 12:49:12;;;;;;;;;;;;;;;;;;5019764;28;20018;-59
2022/11/27 12:51:38;;;;;;;;;;;;;;;;;;5021800;28;20580;-59
2022/11/27 12:54:04;;;;;;;;;;;;;;;;;;5010710;28;20009;-60
2022/11/27 12:56:30;;;;;;;;;;;;;;;;;;5009314;28;21579;-60
2022/11/27 12:58:56;;;;;;;;;;;;;;;;;;5007750;28;20536;-60
2022/11/27 13:01:21;;;;;;;;;;;;;;;;;;5016394;28;19955;-60
2022/11/27 13:03:47;;;;;;;;;;;;;;;;;;5005380;28;20445;-60
2022/11/27 13:06:13;;;;;;;;;;;;;;;;;;5006930;28;19917;-59
2022/11/27 13:08:39;;;;;;;;;;;;;;;;;;5021528;28;19940;-60
2022/11/27 13:11:05;;;;;;;;;;;;;;;;;;5009095;28;19925;-59
2022/11/27 13:13:31;;;;;;;;;;;;;;;;;;5016654;28;19935;-59
2022/11/27 13:15:57;;;;;;;;;;;;;;;;;;5023059;28;20034;-60
2022/11/27 13:18:23;;;;;;;;;;;;;;;;;;5016080;28;19921;-60
2022/11/27 13:20:48;;;;;;;;;;;;;;;;;;5013728;28;20301;-60
2022/11/27 13:23:14;;;;;;;;;;;;;;;;;;5009674;28;19932;-59
2022/11/27 13:25:40;;;;;;;;;;;;;;;;;;5015459;28;19925;-60
2022/11/27 13:28:06;;;;;;;;;;;;;;;;;;4991036;28;19925;-60
2022/11/27 13:30:32;;;;;;;;;;;;;;;;;;5009157;28;19925;-60
2022/11/27 13:33:00;;;;;;;;;;;;;;;;;;5016190;28;19936;-60
2022/11/27 13:35:26;;;;;;;;;;;;;;;;;;5013769;28;20016;-60
2022/11/27 13:37:52;;;;;;;;;;;;;;;;;;5025737;28;19925;-60
2022/11/27 13:40:18;;;;;;;;;;;;;;;;;;5021944;28;19910;-60
2022/11/27 13:42:44;;;;;;;;;;;;;;;;;;5027660;28;19940;-60
2022/11/27 13:45:10;;;;;;;;;;;;;;;;;;5015228;28;19924;-60
2022/11/27 13:47:36;;;;;;;;;;;;;;;;;;5013654;28;20263;-60
2022/11/27 13:50:02;;;;;;;;;;;;;;;;;;4996073;28;20399;-59
2022/11/27 13:52:28;;;;;;;;;;;;;;;;;;5027327;28;20488;-59
2022/11/27 13:54:54;;;;;;;;;;;;;;;;;;5011493;28;19917;-60
2022/11/27 13:57:20;;;;;;;;;;;;;;;;;;5010759;28;19928;-60
2022/11/27 13:59:46;;;;;;;;;;;;;;;;;;5019854;28;19916;-60
2022/11/27 14:02:11;;;;;;;;;;;;;;;;;;5013258;28;20004;-60
2022/11/27 14:04:37;;;;;;;;;;;;;;;;;;5001122;28;19991;-60
2022/11/27 14:07:05;;;;;;;;;;;;;;;;;;4997665;28;20020;-60
2022/11/27 14:09:31;;;;;;;;;;;;;;;;;;5018220;28;19959;-60
2022/11/27 14:11:57;;;;;;;;;;;;;;;;;;5020046;28;20437;-59
2022/11/27 14:14:23;;;;;;;;;;;;;;;;;;5018811;28;19952;-60
2022/11/27 14:16:49;;;;;;;;;;;;;;;;;;5012015;28;20926;-60
2022/11/27 14:19:14;;;;;;;;;;;;;;;;;;5006557;28;19928;-60
2022/11/27 14:21:41;;;;;;;;;;;;;;;;;;5012755;28;20382;-59
2022/11/27 14:24:07;;;;;;;;;;;;;;;;;;5010474;28;19925;-60
2022/11/27 14:26:33;;;;;;;;;;;;;;;;;;5015706;28;19932;-60
2022/11/27 14:28:59;;;;;;;;;;;;;;;;;;5011709;28;19921;-60
2022/11/27 14:31:25;;;;;;;;;;;;;;;;;;5013665;28;20507;-60
2022/11/27 14:33:51;;;;;;;;;;;;;;;;;;5013052;28;19994;-60
2022/11/27 14:36:16;;;;;;;;;;;;;;;;;;5016077;28;20338;-60
2022/11/27 14:38:42;;;;;;;;;;;;;;;;;;5010244;28;19924;-60
2022/11/27 14:41:08;;;;;;;;;;;;;;;;;;5010004;28;19926;-60
2022/11/27 14:43:34;;;;;;;;;;;;;;;;;;5009242;28;19932;-60
2022/11/27 14:46:00;;;;;;;;;;;;;;;;;;5007432;28;19921;-60
2022/11/27 14:48:26;;;;;;;;;;;;;;;;;;5009263;28;19943;-59
2022/11/27 14:50:52;;;;;;;;;;;;;;;;;;5018774;28;20466;-59
2022/11/27 14:53:18;;;;;;;;;;;;;;;;;;5020059;28;19935;-59
2022/11/27 14:55:44;;;;;;;;;;;;;;;;;;5014329;28;19932;-59
2022/11/27 14:58:10;;;;;;;;;;;;;;;;;;5013453;28;20014;-59
2022/11/27 15:00:36;;;;;;;;;;;;;;;;;;5010018;28;20016;-60
2022/11/27 15:03:02;;;;;;;;;;;;;;;;;;4989695;28;20014;-59
2022/11/27 15:05:28;;;;;;;;;;;;;;;;;;4999975;28;20158;-60
2022/11/27 15:07:53;;;;;;;;;;;;;;;;;;5011930;28;20357;-60
2022/11/27 15:10:19;;;;;;;;;;;;;;;;;;5005285;28;20090;-60
2022/11/27 15:12:45;;;;;;;;;;;;;;;;;;5012436;28;19928;-60
2022/11/27 15:15:11;;;;;;;;;;;;;;;;;;5003257;28;20302;-60
2022/11/27 15:17:37;;;;;;;;;;;;;;;;;;4993281;28;19925;-60
2022/11/27 15:20:03;;;;;;;;;;;;;;;;;;4974776;28;19921;-59
2022/11/27 15:22:32;;;;;;;;;;;;;;;;;;5012311;28;19987;-60
2022/11/27 15:24:58;;;;;;;;;;;;;;;;;;5016018;28;20051;-59
2022/11/27 15:27:24;;;;;;;;;;;;;;;;;;5007397;28;19931;-60
2022/11/27 15:29:50;;;;;;;;;;;;;;;;;;5020964;28;20503;-59
2022/11/27 15:32:16;;;;;;;;;;;;;;;;;;5016781;28;19951;-60
2022/11/27 15:34:42;;;;;;;;;;;;;;;;;;4993310;28;19955;-59
2022/11/27 15:37:08;;;;;;;;;;;;;;;;;;5010765;28;20382;-59
2022/11/27 15:39:33;;;;;;;;;;;;;;;;;;5006263;28;20039;-59
2022/11/27 15:41:59;;;;;;;;;;;;;;;;;;5004154;28;20342;-59
2022/11/27 15:44:25;;;;;;;;;;;;;;;;;;5015486;28;19920;-59
2022/11/27 15:46:51;;;;;;;;;;;;;;;;;;4996510;28;20025;-59
2022/11/27 15:49:18;;;;;;;;;;;;;;;;;;5007325;28;20556;-59
2022/11/27 15:51:44;;;;;;;;;;;;;;;;;;5014081;28;20431;-59
2022/11/27 15:54:10;;;;;;;;;;;;;;;;;;4988345;28;20216;-59
2022/11/27 15:56:36;;;;;;;;;;;;;;;;;;4993688;28;25304;-59
2022/11/27 15:59:02;;;;;;;;;;;;;;;;;;5014293;28;19928;-59
2022/11/27 16:01:28;;;;;;;;;;;;;;;;;;5020090;28;19920;-59
2022/11/27 16:03:54;;;;;;;;;;;;;;;;;;4998218;28;20037;-59
2022/11/27 16:06:22;;;;;;;;;;;;;;;;;;5004133;28;20011;-59
2022/11/27 16:08:48;;;;;;;;;;;;;;;;;;5015260;28;20359;-59
2022/11/27 16:11:18;;;;;;;;;;;;;;;;;;5009278;28;19925;-59
2022/11/27 16:13:44;;;;;;;;;;;;;;;;;;5014538;28;19925;-60
2022/11/27 16:16:10;;;;;;;;;;;;;;;;;;5011997;28;19931;-59
2022/11/27 16:18:35;;;;;;;;;;;;;;;;;;5019703;28;19956;-59
2022/11/27 16:21:02;;;;;;;;;;;;;;;;;;5007371;28;19921;-59
2022/11/27 16:23:28;;;;;;;;;;;;;;;;;;5014045;28;19921;-59
2022/11/27 16:25:54;;;;;;;;;;;;;;;;;;5000920;28;20063;-59
2022/11/27 16:28:19;;;;;;;;;;;;;;;;;;5005974;28;19932;-59
2022/11/27 16:30:45;;;;;;;;;;;;;;;;;;5013014;28;20317;-59
2022/11/27 16:33:11;;;;;;;;;;;;;;;;;;5005265;28;19932;-59
2022/11/27 16:35:37;;;;;;;;;;;;;;;;;;4999723;28;19952;-59